world map with LEC marked

LEC - Airport

This information may not be accurate or current and is not valid for navigation or flight planning. No warranty of fitness for any purpose is made or implied.

flag of Bahiaflag of Brazil

Donate via PayPal

Additional information is available on the NEW Great Circle Mapper

Location
City:  Lençõis, Bahia, Brazil
Near (Alt.):Chapada Diamantina NP
Name:Coronel Horácio de Mattos Airport
ICAO / IATA:SBLE / LEC

Details
Type:Airport (Aerodrome, Airfield)
Use:Public/Civil
Latitude:12°28'56"S (-12.482221)
Longitude:41°16'37"W (-41.276943)
Elevation:1660 ft (506 m)
Runways:1
Longest:6831 × 98 ft (2082 × 30 m)

Time
Timezone:UTC+31:08 (DST+33:08)
Local Time:

Weather
METAR:SBLE  041400Z 11004KT 9999 SCT030 29/21 Q1015

Related Locations
Nearby:
Farthest:ULI: 12248 mi / 19712 km
Falalop Island [Ulithi Civil Airfield], Ulithi Atoll, YAP, FM

Find:

   beyond  
but within

Other Information
Maps:
Sources:

  


 


Great Circle Mapper   Great Circle Mapper
Great Circle Mapper FAQ   Great Circle Mapper FAQ
  Karl's Home Page
KLS²   KLS² Home
   GC on Facebook
Airlines of the World   Airlines of the World
Donate via PayPal


Copyright © 2004-2022, Karl L. Swartz. All rights reserved.
All trademarks mentioned herein belong to their respective owners.

Please see credits for attribution and copyright information.

Karl Swartz <karl@kls2.com>
  Powered by FreeBSD
Valid HTML 4.01!
Labeled with ICRA
hCard Microformat
Geo Microformat